Latest Weather Observations for Charleville

IDQ60801

Issued at 5:02 pm EST Saturday 23 May 2015 (issued every 30 minutes, with the page automatically refreshed every 10 minutes)

About weather observations | Map of weather stations | Latest weather observations for QLD | Other Formats
Station Details ID: 044021 Name: CHARLEVILLE AERO Lat: -26.41 Lon: 146.26 Height: 301.6 m
Data from the previous 72 hours. | See also: Recent months at Charleville
Date/Time
EST
Temp
°C
App
Temp
°C
Dew
Point
Rel
Hum
%
Delta-T
°C
Wind Press
QNH
hPa
Press
MSL
hPa
Rain
since 9 am
mm
Dir
 
Spd
km/h
Gust
km/h
Spd
kts
Gust
kts
23/05:00pm 19.0 14.8 5.6 41 6.6 ESE 17 26 9 14 1023.7 - 0.0
23/04:30pm 19.7 15.5 5.7 40 7.0 SE 17 26 9 14 1023.4 - 0.0
23/04:00pm 20.0 15.8 5.7 39 7.2 ESE 17 26 9 14 1023.3 - 0.0
23/03:30pm 19.9 15.6 5.2 38 7.3 SE 17 24 9 13 1023.3 - 0.0
23/03:00pm 19.9 15.1 4.5 36 7.5 SE 19 26 10 14 1023.6 1023.4 0.0
23/02:30pm 20.2 15.4 5.7 38 7.3 SSE 20 30 11 16 1023.4 - 0.0
23/02:00pm 19.6 15.2 5.0 38 7.2 S 17 26 9 14 1023.7 - 0.0
23/01:30pm 19.6 15.4 5.6 40 7.0 SSE 17 30 9 16 1023.9 - 0.0
23/01:00pm 18.8 14.0 5.6 42 6.6 SE 20 28 11 15 1024.1 - 0.0
23/12:30pm 18.9 14.3 6.4 44 6.3 SSE 20 32 11 17 1024.9 - 0.0
23/12:00pm 17.9 12.5 6.2 46 5.8 E 24 32 13 17 1025.5 1025.2 0.0
23/11:30am 17.4 11.6 6.2 47 5.6 ESE 26 32 14 17 1025.9 - 0.0
23/11:00am 16.2 11.2 6.5 52 4.8 ESE 22 30 12 16 1026.2 - 0.0
23/10:30am 16.2 10.7 7.6 56 4.3 ESE 26 33 14 18 1026.2 - 0.0
23/10:00am 15.1 10.0 7.6 61 3.8 ESE 24 32 13 17 1026.5 - 0.0
23/09:30am 14.0 9.8 8.2 68 2.9 SE 20 28 11 15 1026.7 - 0.0
23/09:00am 11.9 9.2 8.8 81 1.6 SE 13 17 7 9 1026.7 1026.5 0.2
23/08:30am 10.2 7.3 8.1 87 1.0 SSE 13 15 7 8 1026.6 - 0.2
23/08:00am 8.0 5.2 7.1 94 0.4 S 11 13 6 7 1026.3 - 0.2
23/07:30am 7.2 6.4 6.6 96 0.3 CALM 0 0 0 0 1026.1 - 0.2
23/07:00am 6.2 5.2 5.7 97 0.2 CALM 0 6 0 3 1025.7 - 0.2
23/06:30am 6.4 3.4 5.9 97 0.2 S 11 13 6 7 1024.9 - 0.2
23/06:00am 6.1 3.0 5.7 97 0.2 S 11 13 6 7 1024.5 1024.3 0.2
23/05:30am 5.2 2.7 4.6 96 0.3 SSE 7 9 4 5 1024.4 - 0.2
23/05:00am 4.7 3.4 4.3 97 0.2 CALM 0 0 0 0 1024.6 - 0.2
23/04:30am 4.8 3.6 4.4 97 0.2 CALM 0 0 0 0 1024.3 - 0.2
23/04:00am 5.0 3.8 4.6 97 0.2 CALM 0 0 0 0 1024.3 - 0.2
23/03:30am 5.3 4.1 4.7 96 0.3 CALM 0 0 0 0 1024.1 - 0.2
23/03:00am 5.4 2.9 4.7 95 0.3 S 7 9 4 5 1024.1 1023.9 0.2
23/02:39am 5.2 4.0 4.7 97 0.2 CALM 0 0 0 0 1024.2 - 0.2
23/02:30am 5.3 4.1 4.8 97 0.2 CALM 0 0 0 0 1024.3 - 0.2
23/02:22am 5.3 4.1 4.8 97 0.2 CALM 0 0 0 0 1024.4 - 0.2
23/02:00am 5.5 4.4 5.1 97 0.2 CALM 0 0 0 0 1024.6 - 0.2
23/01:30am 5.8 4.7 5.3 97 0.2 CALM 0 0 0 0 1024.9 - 0.2
23/01:00am 6.0 5.0 5.6 97 0.2 CALM 0 0 0 0 1025.2 - 0.2
23/12:43am 6.1 5.1 5.6 97 0.2 CALM 0 0 0 0 1025.2 - 0.2
23/12:30am 6.2 5.2 5.7 97 0.2 CALM 0 0 0 0 1025.5 - 0.2
23/12:24am 6.2 5.2 5.8 97 0.2 CALM 0 0 0 0 1025.6 - 0.2
23/12:00am 6.5 5.6 5.9 96 0.3 CALM 0 0 0 0 1025.6 1025.3 0.2
 
Date/Time
EST
Temp
°C
App
Temp
°C
Dew
Point
Rel
Hum
%
Delta-T
°C
Wind Press
QNH
hPa
Press
MSL
hPa
Rain
since 9 am
mm
Dir
 
Spd
km/h
Gust
km/h
Spd
kts
Gust
kts
22/11:30pm 6.7 4.6 6.0 95 0.3 NW 6 7 3 4 1026.0 - 0.2
22/11:00pm 6.7 5.8 6.1 96 0.3 CALM 0 0 0 0 1025.9 - 0.2
22/10:30pm 7.0 6.1 6.1 94 0.4 CALM 0 0 0 0 1026.0 - 0.2
22/10:00pm 7.4 6.6 6.6 95 0.4 CALM 0 0 0 0 1026.0 - 0.2
22/09:30pm 7.7 6.9 6.7 93 0.5 CALM 0 0 0 0 1025.9 - 0.2
22/09:00pm 8.0 7.2 6.7 91 0.6 CALM 0 0 0 0 1025.8 1025.5 0.2
22/08:30pm 8.8 8.2 7.3 90 0.7 CALM 0 4 0 2 1025.6 - 0.2
22/08:00pm 9.8 8.0 7.2 84 1.3 SSE 6 9 3 5 1025.4 - 0.2
22/07:30pm 10.4 8.1 7.4 82 1.4 S 9 9 5 5 1025.0 - 0.2
22/07:00pm 11.1 8.8 7.5 78 1.8 SSW 9 11 5 6 1024.9 - 0.2
22/06:30pm 11.7 9.3 7.0 73 2.3 S 9 11 5 6 1024.6 - 0.2
22/06:00pm 13.0 10.4 6.3 64 3.2 S 9 13 5 7 1024.2 1024.0 0.2
22/05:30pm 14.0 10.5 5.6 57 4.0 S 13 17 7 9 1023.7 - 0.2
22/05:00pm 14.8 9.9 5.1 52 4.6 S 20 28 11 15 1023.5 - 0.2
22/04:30pm 14.9 9.6 5.1 52 4.7 S 22 32 12 17 1023.2 - 0.2
22/04:00pm 15.4 11.1 5.1 50 4.9 SSW 17 24 9 13 1023.1 - 0.2
22/03:30pm 16.1 11.2 5.3 48 5.2 S 20 30 11 16 1023.0 - 0.2
22/03:00pm 15.4 10.7 5.3 51 4.8 S 19 28 10 15 1023.0 1022.7 0.2
22/02:30pm 15.8 11.0 5.8 51 4.9 S 20 28 11 15 1023.2 - 0.2
22/02:00pm 14.5 10.2 5.4 54 4.4 SSW 17 26 9 14 1023.2 - 0.2
22/01:30pm 14.5 10.3 5.6 55 4.3 S 17 30 9 16 1023.3 - 0.0
22/01:00pm 13.9 9.4 6.1 59 3.8 SSW 19 26 10 14 1023.8 - 0.0
22/12:30pm 13.0 9.3 6.4 64 3.2 S 15 20 8 11 1024.5 - 0.0
22/12:00pm 11.8 8.5 6.2 68 2.7 SSE 13 20 7 11 1025.0 1024.8 0.0
22/11:30am 11.1 6.7 6.5 73 2.2 SSE 19 26 10 14 1025.5 - 0.0
22/11:08am 11.2 6.8 6.5 73 2.3 S 19 22 10 12 1025.6 - 0.0
22/11:00am 11.0 7.7 6.6 74 2.1 SSW 13 19 7 10 1025.7 - 0.0
22/10:30am 10.3 6.7 6.7 78 1.7 S 15 19 8 10 1025.9 - 0.0
22/10:00am 9.9 6.7 6.9 81 1.4 S 13 19 7 10 1025.8 - 0.0
22/09:30am 9.3 5.4 6.9 85 1.1 S 17 22 9 12 1025.7 - 0.0
22/09:00am 9.0 5.0 6.8 86 1.0 S 17 26 9 14 1025.5 1025.2 0.8
22/08:30am 8.6 5.0 6.9 89 0.8 S 15 28 8 15 1025.0 - 0.8
22/08:02am 8.4 5.7 7.4 93 0.5 S 11 17 6 9 1024.6 - 0.8
22/08:00am 8.4 5.7 7.4 93 0.5 S 11 17 6 9 1024.6 - 0.8
22/07:30am 7.4 6.3 6.8 96 0.3 SW 2 7 1 4 1024.1 - 0.8
22/07:00am 5.9 3.7 5.4 97 0.2 SW 6 7 3 4 1023.7 - 0.8
22/06:30am 6.2 3.9 5.7 97 0.2 S 7 7 4 4 1023.3 - 0.8
22/06:00am 6.4 5.5 5.9 97 0.2 CALM 0 0 0 0 1022.9 1022.6 0.8
22/05:30am 6.6 5.7 6.1 97 0.2 CALM 0 0 0 0 1022.7 - 0.8
22/05:00am 7.1 6.3 6.5 96 0.3 CALM 0 0 0 0 1022.5 - 0.8
22/04:30am 7.7 5.7 6.9 95 0.4 S 7 7 4 4 1022.3 - 0.8
22/04:00am 8.6 6.2 7.2 91 0.7 S 9 11 5 6 1022.3 - 0.8
22/03:30am 9.1 6.8 7.4 89 0.8 SSW 9 15 5 8 1022.5 - 0.8
22/03:00am 9.4 6.8 7.8 90 0.8 SSW 11 13 6 7 1022.4 1022.1 0.8
22/02:30am 9.5 7.4 8.3 92 0.6 SSW 9 11 5 6 1022.5 - 0.8
22/02:00am 9.9 7.8 8.4 90 0.7 SSW 9 13 5 7 1022.5 - 0.8
22/01:30am 10.2 7.8 8.5 89 0.8 SSW 11 15 6 8 1022.5 - 0.8
22/01:00am 10.5 8.1 8.8 89 0.9 S 11 15 6 8 1022.7 - 0.8
22/12:30am 10.5 8.6 9.2 92 0.7 S 9 13 5 7 1022.6 - 0.8
22/12:00am 11.2 9.8 9.4 89 0.9 S 7 9 4 5 1022.7 1022.4 0.8
 
Date/Time
EST
Temp
°C
App
Temp
°C
Dew
Point
Rel
Hum
%
Delta-T
°C
Wind Press
QNH
hPa
Press
MSL
hPa
Rain
since 9 am
mm
Dir
 
Spd
km/h
Gust
km/h
Spd
kts
Gust
kts
21/11:30pm 11.9 9.8 9.7 86 1.1 S 11 15 6 8 1022.8 - 0.8
21/11:00pm 12.0 10.2 10.9 93 0.6 SW 11 13 6 7 1022.7 - 0.8
21/10:30pm 12.6 11.7 11.4 92 0.6 WSW 7 9 4 5 1022.6 - 0.8
21/10:00pm 13.2 11.9 11.4 89 1.0 SW 9 13 5 7 1022.5 - 0.8
21/09:30pm 13.6 12.4 11.7 88 1.0 SW 9 11 5 6 1022.4 - 0.8
21/09:00pm 14.0 13.3 11.9 87 1.1 SW 7 11 4 6 1022.2 1021.9 0.8
21/08:30pm 14.5 13.3 11.7 83 1.5 SSW 9 11 5 6 1021.9 - 0.8
21/08:00pm 14.5 12.9 11.6 83 1.6 SSW 11 17 6 9 1021.5 - 0.8
21/07:30pm 14.6 11.6 11.9 84 1.5 SW 19 26 10 14 1021.1 - 0.8
21/07:00pm 13.5 14.3 12.4 93 0.6 CALM 0 0 0 0 1020.5 - 0.8
21/06:30pm 14.0 14.7 12.1 88 1.0 CALM 0 0 0 0 1020.1 - 0.8
21/06:00pm 15.2 16.1 12.8 85 1.3 CALM 0 0 0 0 1019.9 1019.6 0.8
21/05:30pm 16.8 16.8 12.5 76 2.4 SW 4 7 2 4 1020.0 - 0.8
21/05:00pm 17.7 16.4 11.3 66 3.5 SW 9 15 5 8 1020.1 - 0.8
21/04:30pm 17.8 16.1 11.2 65 3.6 SW 11 15 6 8 1019.8 - 0.8
21/04:00pm 17.5 15.6 11.8 69 3.2 SW 13 19 7 10 1019.7 - 0.8
21/03:30pm 17.2 16.3 12.7 75 2.5 SW 9 13 5 7 1019.7 - 0.8
21/03:00pm 17.2 16.2 13.3 78 2.2 WSW 11 15 6 8 1019.6 1019.3 0.8
21/02:30pm 17.3 16.2 13.0 76 2.4 SSW 11 17 6 9 1019.7 - 0.8
21/02:00pm 17.2 16.1 13.1 77 2.3 WSW 11 17 6 9 1019.7 - 0.8
21/01:30pm 16.9 16.2 13.3 79 2.0 WSW 9 13 5 7 1020.0 - 0.8
21/01:00pm 16.4 15.5 13.6 83 1.6 WSW 11 15 6 8 1020.4 - 0.8
21/12:30pm 16.2 15.6 13.5 84 1.5 W 9 13 5 7 1020.8 - 0.8
21/12:13pm 16.1 15.5 13.6 85 1.4 WSW 9 13 5 7 1020.9 - 0.8
21/12:00pm 16.0 15.1 13.8 87 1.3 W 11 15 6 8 1021.2 1021.0 0.8
21/11:30am 15.7 15.3 14.1 90 0.9 WSW 9 13 5 7 1021.3 - 0.8
21/11:00am 15.4 15.5 14.4 94 0.6 W 7 9 4 5 1021.4 - 0.8
21/10:30am 14.9 14.1 14.1 95 0.5 NNW 11 13 6 7 1021.9 - 0.6
21/10:00am 14.8 14.7 14.0 95 0.5 NNW 7 9 4 5 1022.0 - 0.6
21/09:30am 14.6 13.8 14.0 96 0.3 N 11 13 6 7 1022.2 - 0.4
21/09:14am 14.5 14.0 13.9 96 0.3 N 9 11 5 6 1022.0 - 0.0
21/09:00am 14.5 15.8 14.0 97 0.3 CALM 0 7 0 4 1022.0 1021.7 12.2
21/08:30am 14.4 14.3 13.8 96 0.3 NNW 7 11 4 6 1022.1 - 10.8
21/08:00am 14.3 13.8 13.7 96 0.3 N 9 9 5 5 1021.7 - 10.6
21/07:30am 14.3 13.8 13.8 97 0.3 NNE 9 13 5 7 1021.2 - 10.4
21/07:00am 14.2 14.5 13.5 96 0.4 N 4 7 2 4 1020.8 - 8.4
21/06:52am 14.3 14.1 13.6 96 0.4 N 7 11 4 6 1021.0 - 7.2
21/06:30am 14.2 14.0 13.7 97 0.3 ENE 7 9 4 5 1020.2 - 6.8
21/06:00am 14.1 15.2 13.4 96 0.4 CALM 0 0 0 0 1020.5 1020.2 6.4
21/05:30am 13.9 14.2 13.4 97 0.3 WSW 4 9 2 5 1020.6 - 5.8
21/05:00am 14.1 14.8 13.5 96 0.3 SE 2 7 1 4 1020.3 - 3.4
21/04:52am 14.1 15.1 13.3 95 0.4 CALM 0 0 0 0 1020.2 - 3.2
21/04:51am 14.0 15.0 13.3 96 0.4 CALM 0 4 0 2 1020.2 - 3.2
21/04:31am 14.0 13.7 13.3 96 0.4 E 7 9 4 5 1019.8 - 3.2
21/04:30am 14.0 13.7 13.3 96 0.4 E 7 9 4 5 1019.7 - 3.2
21/04:00am 14.1 14.0 13.3 95 0.4 SW 6 7 3 4 1020.2 - 2.0
21/03:31am 14.4 14.0 13.1 92 0.7 WNW 7 13 4 7 1020.5 - 0.6
21/03:30am 14.4 14.0 13.1 92 0.7 WNW 7 13 4 7 1020.7 - 0.6
21/03:00am 14.5 14.3 13.1 91 0.8 E 6 11 3 6 1019.8 1019.5 0.0
21/02:46am 14.7 15.2 12.8 88 1.1 E 2 7 1 4 1020.5 - 0.0
21/02:31am 14.7 14.4 12.8 88 1.1 SSW 6 7 3 4 1020.4 - 0.0
21/02:30am 14.7 14.4 12.8 88 1.1 SSW 6 7 3 4 1020.5 - 0.0
21/02:00am 15.2 14.2 12.3 83 1.6 S 9 13 5 7 1020.9 - 0.0
21/01:30am 15.9 14.8 10.8 71 2.8 S 7 11 4 6 1020.9 - 0.0
21/01:00am 16.0 14.2 10.8 71 2.8 S 11 13 6 7 1021.0 - 0.0
21/12:30am 16.3 14.4 10.4 68 3.2 S 11 15 6 8 1021.3 - 0.0
21/12:00am 16.7 14.2 9.7 63 3.7 SSW 13 19 7 10 1021.2 1021.0 0.0
 
Date/Time
EST
Temp
°C
App
Temp
°C
Dew
Point
Rel
Hum
%
Delta-T
°C
Wind Press
QNH
hPa
Press
MSL
hPa
Rain
since 9 am
mm
Dir
 
Spd
km/h
Gust
km/h
Spd
kts
Gust
kts
20/11:30pm 17.0 14.7 9.1 59 4.2 SSW 11 15 6 8 1021.2 - 0.0
20/11:00pm 17.4 14.6 8.4 55 4.7 SSW 13 19 7 10 1021.4 - 0.0
20/10:30pm 17.6 15.2 8.6 55 4.7 S 11 15 6 8 1021.0 - 0.0
20/10:00pm 17.7 15.2 8.2 53 4.9 S 11 15 6 8 1021.0 - 0.0
20/09:30pm 17.8 14.8 7.8 52 5.2 SSE 13 17 7 9 1020.6 - 0.0
20/09:00pm 18.0 14.6 7.6 50 5.3 S 15 20 8 11 1020.8 1020.6 0.0
20/08:30pm 18.1 14.2 7.2 49 5.6 S 17 24 9 13 1020.8 - 0.0
20/08:00pm 18.3 13.0 6.9 47 5.8 SSW 24 35 13 19 1020.5 - 0.0
20/07:30pm 19.0 14.4 6.3 43 6.4 S 20 32 11 17 1020.0 - 0.0
20/07:00pm 19.9 14.5 6.3 41 6.9 SW 24 33 13 18 1019.5 - 0.0
20/06:30pm 21.0 15.8 5.6 36 7.8 S 22 39 12 21 1019.1 - 0.0
20/06:00pm 21.9 17.5 8.9 43 7.0 SSW 22 32 12 17 1018.6 1018.3 0.0
20/05:30pm 22.9 19.3 10.5 45 6.9 S 20 32 11 17 1017.6 - 0.0

Other Formats:

Comma delimited format used in spreadsheet applications
http://www.bom.gov.au/fwo/IDQ60801/IDQ60801.94510.axf

JavaScript Object Notation format (JSON) in row-major order
http://www.bom.gov.au/fwo/IDQ60801/IDQ60801.94510.json